Kissho — JD3124 — position and weather

sailwx.info

Track history (hours):
 
Tides and Currents Weather Stations Pressure Air Temp Water Temp Dewpoint Dewpoint Depression Visibility Wind Speed Wind Dir Waves Ship Positions

Kissho

Last reported at 2014-Oct-23 11:32 UTC. Time now 2014-Oct-25 00:01 UTC.
Position N 34°29' E 135°09'.

Length 30 m.

Type: Tug. MMSI: 431002115.

Date/timePositionNaut miles runAvg speedWind from/ knotsBaromVisibWave heightAir tempDewpointWater temp
2014-Oct-23 11:32N 34°29' E 135°09'7 6.8
2014-Oct-23 10:33N 34°33' E 135°15'7 7.1
2014-Oct-23 09:31N 34°38' E 135°22'5 0.4
2014-Oct-22 20:27N 34°39' E 135°28'0 0.0
2014-Oct-22 14:33N 34°39' E 135°28'0 0.0
2014-Oct-22 13:09N 34°39' E 135°28'0 0.0
2014-Oct-22 11:27N 34°39' E 135°28'0 0.0
2014-Oct-22 07:15N 34°39' E 135°28'0 0.0
2014-Oct-22 00:03N 34°39' E 135°28'1 0.0
2014-Oct-20 06:08N 34°39' E 135°27'2 3.3
2014-Oct-20 05:29N 34°39' E 135°24'3 3.5
2014-Oct-20 04:33N 34°36' E 135°22'5 4.0
2014-Oct-20 03:18N 34°31' E 135°23'0 0.0
2014-Oct-19 07:33N 34°31' E 135°24'0 0.0
2014-Oct-19 05:33N 34°31' E 135°24'5 1.6
2014-Oct-19 02:31N 34°35' E 135°21'3 3.6
2014-Oct-19 01:33N 34°38' E 135°24'2 0.1
2014-Oct-18 08:04N 34°39' E 135°26'5 8.1
2014-Oct-18 07:30N 34°41' E 135°21'2 2.1
2014-Oct-18 06:33N 34°40' E 135°19'7 7.4
2014-Oct-18 05:33N 34°36' E 135°11'  
2014-Oct-15 01:24N 34°26' E 135°06'7 7.7
2014-Oct-15 00:31N 34°31' E 135°12'7 7.6
2014-Oct-14 23:33N 34°36' E 135°18'5 4.9
2014-Oct-14 22:33N 34°38' E 135°24'3 2.8
2014-Oct-14 21:31N 34°39' E 135°27'1 0.0
2014-Oct-14 04:06N 34°39' E 135°26'1 1.7
2014-Oct-14 03:29N 34°40' E 135°26'5 5.0
2014-Oct-14 02:31N 34°39' E 135°20'  
Track history (hours):
 
Tides and Currents Weather Stations Pressure Air Temp Water Temp Dewpoint Dewpoint Depression Visibility Wind Speed Wind Dir Waves Ship Positions

Kissho

Last reported at 2014-Oct-23 11:32 UTC. Time now 2014-Oct-25 00:01 UTC.
Position N 34°29' E 135°09'.

Length 30 m.

Type: Tug. MMSI: 431002115.

Date/timePositionNaut miles runAvg speedWind from/ knotsBaromVisibWave heightAir tempDewpointWater temp
2014-Oct-23 11:32N 34°29' E 135°09'7 6.8
2014-Oct-23 10:33N 34°33' E 135°15'7 7.1
2014-Oct-23 09:31N 34°38' E 135°22'5 0.4
2014-Oct-22 20:27N 34°39' E 135°28'0 0.0
2014-Oct-22 14:33N 34°39' E 135°28'0 0.0
2014-Oct-22 13:09N 34°39' E 135°28'0 0.0
2014-Oct-22 11:27N 34°39' E 135°28'0 0.0
2014-Oct-22 07:15N 34°39' E 135°28'0 0.0
2014-Oct-22 00:03N 34°39' E 135°28'1 0.0
2014-Oct-20 06:08N 34°39' E 135°27'2 3.3
2014-Oct-20 05:29N 34°39' E 135°24'3 3.5
2014-Oct-20 04:33N 34°36' E 135°22'5 4.0
2014-Oct-20 03:18N 34°31' E 135°23'0 0.0
2014-Oct-19 07:33N 34°31' E 135°24'0 0.0
2014-Oct-19 05:33N 34°31' E 135°24'5 1.6
2014-Oct-19 02:31N 34°35' E 135°21'3 3.6
2014-Oct-19 01:33N 34°38' E 135°24'2 0.1
2014-Oct-18 08:04N 34°39' E 135°26'5 8.1
2014-Oct-18 07:30N 34°41' E 135°21'2 2.1
2014-Oct-18 06:33N 34°40' E 135°19'7 7.4
2014-Oct-18 05:33N 34°36' E 135°11'  
2014-Oct-15 01:24N 34°26' E 135°06'7 7.7
2014-Oct-15 00:31N 34°31' E 135°12'7 7.6
2014-Oct-14 23:33N 34°36' E 135°18'5 4.9
2014-Oct-14 22:33N 34°38' E 135°24'3 2.8
2014-Oct-14 21:31N 34°39' E 135°27'1 0.0
2014-Oct-14 04:06N 34°39' E 135°26'1 1.7
2014-Oct-14 03:29N 34°40' E 135°26'5 5.0
2014-Oct-14 02:31N 34°39' E 135°20'  

Dump ship's entire track history